EST,Max TemperatureF,Mean TemperatureF,Min TemperatureF,Max Dew PointF,MeanDew PointF,Min DewpointF,Max Humidity, Mean Humidity, Min Humidity, Max Sea Level PressureIn, Mean Sea Level PressureIn, Min Sea Level PressureIn, Max VisibilityMiles, Mean VisibilityMiles, Min VisibilityMiles, Max Wind SpeedMPH, Mean Wind SpeedMPH, Max Gust SpeedMPH,PrecipitationIn, CloudCover, Events, WindDirDegrees
2013-11-1,70,61,52,63,55,41,100,80,47,29.77,29.59,29.48,10,9,2,22,13,32,0.11,6,Rain,200
2013-11-2,66,52,39,48,41,38,93,69,41,29.77,29.68,29.61,10,10,10,9,3,,0.00,4,,273
2013-11-3,50,39,30,43,27,14,82,55,30,30.43,30.10,29.79,10,10,10,15,9,24,0.00,4,,11
2013-11-4,43,33,23,20,16,12,84,55,30,30.72,30.64,30.49,10,10,10,16,3,,0.00,0,,16
2013-11-5,52,38,25,35,27,19,78,64,44,30.73,30.63,30.51,10,10,10,9,2,,0.00,0,,183
2013-11-6,62,50,37,48,40,34,93,71,46,30.50,30.30,30.04,10,10,9,20,5,26,0.00,4,,192
2013-11-7,62,52,37,54,46,30,86,75,62,30.01,29.83,29.72,10,10,10,20,10,28,0.03,6,Rain,249
2013-11-8,48,39,30,33,27,18,96,67,35,30.14,29.99,29.87,10,10,10,20,7,36,0.00,4,,276
2013-11-9,45,36,27,30,25,21,78,62,43,30.26,30.16,30.00,10,10,10,10,5,,0.00,2,,273
2013-11-10,53,45,37,36,33,27,89,65,50,29.97,29.87,29.79,10,10,10,28,4,38,0.01,6,Rain,243
2013-11-11,51,45,39,28,26,24,53,46,36,30.13,30.03,29.92,10,10,10,25,14,36,0.00,5,,251
2013-11-12,48,38,28,35,21,13,73,56,46,30.25,30.10,29.91,10,10,9,16,11,31,0.00,4,Rain-Snow,310
2013-11-13,36,30,25,15,12,6,63,49,29,30.35,30.28,30.21,10,10,10,15,9,24,0.00,0,,301
2013-11-14,53,40,28,20,17,14,64,43,25,30.17,30.12,30.08,10,10,10,16,8,24,0.00,0,,197
2013-11-15,61,42,24,25,19,14,78,50,16,30.23,30.18,30.12,10,10,7,13,4,,0.00,0,,184
2013-11-16,61,46,32,32,30,25,85,61,32,30.32,30.28,30.21,10,10,10,8,2,,0.00,1,,228
2013-11-17,48,40,33,47,41,30,97,90,82,30.30,30.14,29.81,10,4,0,6,1,,0.07,8,Fog-Rain,14
2013-11-18,64,56,46,58,45,27,97,66,34,29.77,29.63,29.54,10,8,0,18,9,30,0.32,5,Fog-Rain,222
2013-11-19,46,36,27,29,20,17,72,48,37,30.36,30.03,29.74,10,10,10,31,14,41,0.00,3,,317
2013-11-20,42,32,21,17,14,10,85,53,28,30.65,30.55,30.38,10,10,10,14,8,,0.00,0,,360
2013-11-21,46,32,18,30,21,13,85,64,35,30.67,30.56,30.40,10,10,9,10,1,,0.00,2,,171
2013-11-22,46,42,39,45,40,30,97,90,70,30.37,30.06,29.85,10,4,0,18,1,24,0.09,8,Fog-Rain,251
2013-11-23,48,39,26,39,21,10,75,53,38,30.01,29.91,29.86,10,9,2,22,14,43,0.00,4,Snow,303
2013-11-24,28,23,18,9,2,-4,55,41,27,30.30,30.08,29.89,10,10,10,29,19,40,0.00,1,,308
2013-11-25,34,26,17,12,5,-4,45,40,35,30.43,30.35,30.28,10,10,10,14,8,22,0.00,0,,266
2013-11-26,37,32,28,31,23,11,92,69,40,30.34,30.23,30.01,10,7,2,14,8,,0.20,8,Rain-Snow,191
2013-11-27,48,41,34,46,36,26,97,88,65,29.92,29.52,29.33,10,6,2,23,10,31,2.53,8,Rain,348
2013-11-28,36,28,19,25,13,5,75,54,36,30.48,30.11,29.57,10,10,10,24,15,37,0.00,4,,294
2013-11-29,35,28,18,17,13,10,85,59,35,30.76,30.60,30.48,10,10,10,13,3,,0.00,2,,319
2013-11-30,32,22,12,18,11,8,84,63,38,30.82,30.68,30.43,10,10,10,7,3,,0.00,2,,333